Time;durP1;ratioP1;P1;durP2;ratioP2;P2;SDS_P1;SDS_P2;PMS_P1;PMS_P2;Temp;Humidity;BMP_temperature;BMP_pressure;BME280_temperature;BME280_humidity;BME280_pressure;Samples;Min_cycle;Max_cycle;Signal;HPM_P1;HPM_P2
2022/12/14 00:01:07;;;;;;;12.45;6.35;;;-3274.10;82.80;;;;;;5114168;27;20054;-71
2022/12/14 00:03:36;;;;;;;12.85;5.30;;;-3274.20;82.60;;;;;;5118141;27;20422;-70
2022/12/14 00:06:10;;;;;;;11.13;5.68;;;-3274.20;82.40;;;;;;5121984;27;20053;-61
2022/12/14 00:08:37;;;;;;;14.48;5.45;;;-3274.20;82.30;;;;;;5119656;27;20044;-61
2022/12/14 00:11:04;;;;;;;10.88;4.35;;;-3274.20;82.20;;;;;;5120812;27;20039;-71
2022/12/14 00:13:39;;;;;;;9.13;4.30;;;-3274.20;82.10;;;;;;5122081;27;20123;-72
2022/12/14 00:16:09;;;;;;;9.77;4.70;;;-3274.20;82.10;;;;;;5121215;27;20107;-62
2022/12/14 00:18:36;;;;;;;10.20;4.38;;;-3274.20;82.00;;;;;;5121327;27;20078;-62
2022/12/14 00:21:05;;;;;;;10.70;4.32;;;-3274.20;81.80;;;;;;5120335;27;20301;-70
2022/12/14 00:23:32;;;;;;;12.27;4.50;;;-3274.30;81.50;;;;;;5121346;27;20040;-70
2022/12/14 00:25:59;;;;;;;10.57;4.05;;;-3274.40;81.30;;;;;;5111231;27;20066;-61
2022/12/14 00:28:26;;;;;;;8.40;3.30;;;-3274.40;81.10;;;;;;5120883;27;20047;-61
2022/12/14 00:30:58;;;;;;;9.75;4.15;;;-3274.40;80.80;;;;;;5122597;27;20070;-61
2022/12/14 00:33:25;;;;;;;10.73;4.38;;;-3274.40;80.80;;;;;;5118895;27;20039;-61
2022/12/14 00:35:51;;;;;;;6.93;3.67;;;-3274.40;80.80;;;;;;5112634;27;20118;-70
2022/12/14 00:38:18;;;;;;;8.23;3.60;;;-3274.40;80.70;;;;;;5121338;27;20414;-70
2022/12/14 00:40:45;;;;;;;8.23;3.17;;;-3274.40;80.50;;;;;;5121339;27;20130;-65
2022/12/14 00:43:12;;;;;;;9.38;3.53;;;-3274.50;80.40;;;;;;5121071;27;20055;-65
2022/12/14 00:45:39;;;;;;;8.20;3.35;;;-3274.40;80.40;;;;;;5121299;27;20218;-65
2022/12/14 00:48:07;;;;;;;9.45;3.70;;;-3274.50;80.50;;;;;;5121656;27;20046;-65
2022/12/14 00:50:34;;;;;;;8.90;3.90;;;-3274.50;80.50;;;;;;5119942;27;20039;-61
2022/12/14 00:53:01;;;;;;;7.15;3.58;;;-3274.50;80.40;;;;;;5121568;27;20062;-60
2022/12/14 00:55:28;;;;;;;8.05;3.17;;;-3274.40;80.50;;;;;;5119902;27;20482;-70
2022/12/14 00:57:55;;;;;;;7.60;3.50;;;-3274.50;80.10;;;;;;5117786;27;20043;-70
2022/12/14 01:00:22;;;;;;;10.00;3.55;;;-3274.50;80.20;;;;;;5121727;27;20042;-63
2022/12/14 01:02:49;;;;;;;8.65;3.40;;;-3274.50;79.90;;;;;;5121113;27;20046;-65
2022/12/14 01:05:18;;;;;;;8.35;3.85;;;-3274.50;80.00;;;;;;5118888;27;20048;-66
2022/12/14 01:07:45;;;;;;;7.95;3.10;;;-3274.60;80.10;;;;;;5120373;27;20043;-66
2022/12/14 01:10:12;;;;;;;7.05;3.33;;;-3274.50;80.10;;;;;;5121343;27;20115;-69
2022/12/14 01:12:39;;;;;;;7.35;3.35;;;-3274.40;80.10;;;;;;5117194;27;20161;-70
2022/12/14 01:15:07;;;;;;;8.35;4.00;;;-3274.50;80.10;;;;;;5119601;27;20083;-71
2022/12/14 01:17:34;;;;;;;7.40;3.25;;;-3274.50;80.00;;;;;;5121469;27;20096;-71
2022/12/14 01:20:01;;;;;;;9.63;3.20;;;-3274.50;79.90;;;;;;5118655;27;20051;-71
2022/12/14 01:22:29;;;;;;;6.88;3.20;;;-3274.50;79.80;;;;;;5117523;27;20156;-63
2022/12/14 01:24:56;;;;;;;6.72;3.10;;;-3274.50;79.80;;;;;;5119989;27;20057;-63
2022/12/14 01:27:23;;;;;;;8.15;3.80;;;-3274.50;79.70;;;;;;5119131;27;20045;-64
2022/12/14 01:29:50;;;;;;;7.05;2.92;;;-3274.60;79.80;;;;;;5118151;27;20050;-66
2022/12/14 01:32:16;;;;;;;7.47;2.95;;;-3274.60;79.90;;;;;;5122296;27;20481;-62
2022/12/14 01:34:43;;;;;;;7.07;3.40;;;-3274.60;79.90;;;;;;5119437;27;20039;-62
2022/12/14 01:37:10;;;;;;;8.82;4.38;;;-3274.60;79.90;;;;;;5120303;27;20503;-65
2022/12/14 01:39:38;;;;;;;9.52;3.88;;;-3274.60;79.80;;;;;;5119480;27;20489;-65
2022/12/14 01:42:11;;;;;;;9.52;3.58;;;-3274.60;79.90;;;;;;5120439;27;20039;-61
2022/12/14 01:44:54;;;;;;;7.95;3.72;;;-3274.50;79.70;;;;;;5117720;27;20372;-60
2022/12/14 01:47:40;;;;;;;8.98;3.13;;;-3274.50;79.50;;;;;;5118994;27;20056;-61
2022/12/14 01:50:18;;;;;;;7.50;3.70;;;-3274.50;79.70;;;;;;5119599;27;20474;-61
2022/12/14 01:52:48;;;;;;;7.97;3.67;;;-3274.50;79.50;;;;;;5117950;27;20044;-71
2022/12/14 01:55:21;;;;;;;10.13;3.53;;;-3274.60;79.60;;;;;;5120424;27;20496;-71
2022/12/14 01:57:51;;;;;;;7.85;3.20;;;-3274.60;79.60;;;;;;5118616;27;20047;-70
2022/12/14 02:00:19;;;;;;;8.45;3.95;;;-3274.60;79.60;;;;;;5120070;27;20055;-63
2022/12/14 02:02:51;;;;;;;7.13;3.38;;;-3274.60;79.50;;;;;;5116331;27;20048;-61
2022/12/14 02:05:21;;;;;;;9.18;3.20;;;-3274.60;79.50;;;;;;5103981;27;20047;-70
2022/12/14 02:07:50;;;;;;;7.35;3.08;;;-3274.60;79.30;;;;;;5094335;27;20063;-70
2022/12/14 02:10:20;;;;;;;9.25;3.55;;;-3274.60;79.30;;;;;;5079646;28;20048;-62
2022/12/14 02:12:52;;;;;;;7.95;3.00;;;-3274.60;79.30;;;;;;5076487;28;20102;-63
2022/12/14 02:15:19;;;;;;;7.30;3.47;;;-3274.60;78.80;;;;;;5077049;28;20048;-66
2022/12/14 02:17:48;;;;;;;7.00;2.92;;;-3274.60;79.10;;;;;;5077647;28;20040;-65
2022/12/14 02:20:17;;;;;;;6.88;3.20;;;-3274.60;78.90;;;;;;5077603;28;20111;-65
2022/12/14 02:23:23;;;;;;;9.88;3.50;;;-3274.70;79.00;;;;;;5076322;28;20102;-65
2022/12/14 02:26:18;;;;;;;10.57;3.67;;;-3274.60;78.90;;;;;;5077748;28;20045;-60
2022/12/14 02:29:16;;;;;;;5.97;3.05;;;-3274.70;79.00;;;;;;5077387;28;20051;-61
2022/12/14 02:31:51;;;;;;;11.05;3.90;;;-3274.70;79.00;;;;;;5077879;28;20944;-60
2022/12/14 02:34:26;;;;;;;8.02;3.50;;;-3274.70;78.50;;;;;;5090632;28;20040;-62
2022/12/14 02:36:59;;;;;;;6.70;3.10;;;-3274.70;78.50;;;;;;5088709;27;20032;-66
2022/12/14 02:39:34;;;;;;;7.65;3.53;;;-3274.70;78.40;;;;;;5097993;27;20052;-68
2022/12/14 02:42:08;;;;;;;8.43;3.13;;;-3274.70;78.00;;;;;;5100058;27;20074;-64
2022/12/14 02:44:46;;;;;;;6.68;2.78;;;-3274.70;78.00;;;;;;5098525;28;20051;-64
2022/12/14 02:47:18;;;;;;;8.02;3.20;;;-3274.80;78.10;;;;;;5097494;28;20414;-60
2022/12/14 02:49:57;;;;;;;7.05;3.28;;;-3274.80;78.10;;;;;;5097994;28;20544;-62
2022/12/14 02:52:35;;;;;;;8.88;3.80;;;-3274.70;78.10;;;;;;5096138;28;20109;-64
2022/12/14 02:55:06;;;;;;;6.20;3.05;;;-3274.70;78.10;;;;;;5093135;28;20043;-68
2022/12/14 02:57:38;;;;;;;7.75;3.03;;;-3274.80;77.90;;;;;;5100501;27;20101;-65
2022/12/14 03:00:08;;;;;;;6.50;2.88;;;-3274.80;78.10;;;;;;5098467;27;20047;-65
2022/12/14 03:02:37;;;;;;;7.90;3.00;;;-3274.80;78.30;;;;;;5096431;27;20090;-65
2022/12/14 03:05:04;;;;;;;8.38;2.92;;;-3274.80;77.90;;;;;;5098370;27;20047;-65
2022/12/14 03:07:39;;;;;;;10.50;3.42;;;-3274.70;77.90;;;;;;5098907;27;20051;-64
2022/12/14 03:10:14;;;;;;;8.68;3.20;;;-3274.80;77.80;;;;;;5097771;27;20051;-66
2022/12/14 03:12:45;;;;;;;8.98;3.25;;;-3274.80;77.70;;;;;;5098247;28;20060;-65
2022/12/14 03:15:16;;;;;;;8.15;3.58;;;-3274.80;77.60;;;;;;5099753;27;20036;-61
2022/12/14 03:17:48;;;;;;;7.53;2.72;;;-3274.80;77.60;;;;;;5098404;27;20079;-60
2022/12/14 03:20:20;;;;;;;7.93;3.70;;;-3274.80;77.70;;;;;;5097453;27;20067;-65
2022/12/14 03:22:52;;;;;;;8.38;3.45;;;-3274.90;77.70;;;;;;5096279;27;20481;-64
2022/12/14 03:25:24;;;;;;;9.38;3.60;;;-3274.90;77.50;;;;;;5098984;27;20047;-65
2022/12/14 03:27:56;;;;;;;6.50;2.97;;;-3274.90;77.60;;;;;;5096285;28;20048;-66
2022/12/14 03:30:25;;;;;;;7.93;3.45;;;-3274.90;77.50;;;;;;5113101;27;20044;-65
2022/12/14 03:32:56;;;;;;;8.82;3.60;;;-3274.90;77.70;;;;;;5097462;28;20136;-65
2022/12/14 03:35:26;;;;;;;9.05;3.92;;;-3274.90;77.60;;;;;;5098762;27;20051;-63
2022/12/14 03:37:58;;;;;;;8.40;3.65;;;-3274.90;77.40;;;;;;5096321;27;20048;-62
2022/12/14 03:40:31;;;;;;;9.10;3.83;;;-3274.90;77.10;;;;;;5097441;27;20051;-62
2022/12/14 03:43:05;;;;;;;7.00;3.80;;;-3274.90;77.20;;;;;;5098686;27;20040;-61
2022/12/14 03:45:38;;;;;;;8.23;3.90;;;-3274.90;77.30;;;;;;5092382;28;20063;-64
2022/12/14 03:48:14;;;;;;;8.18;3.55;;;-3274.90;77.30;;;;;;5096288;27;20039;-64
2022/12/14 03:50:45;;;;;;;8.70;3.78;;;-3275.00;77.20;;;;;;5097879;28;20498;-63
2022/12/14 03:53:17;;;;;;;10.32;4.15;;;-3275.00;77.40;;;;;;5094660;28;20474;-62
2022/12/14 03:55:54;;;;;;;8.02;3.47;;;-3275.00;77.60;;;;;;5097330;27;20054;-62
2022/12/14 03:58:35;;;;;;;7.32;3.42;;;-3275.00;77.40;;;;;;5098564;27;20058;-63
2022/12/14 04:01:11;;;;;;;8.57;3.95;;;-3275.00;77.40;;;;;;5095168;28;20052;-63
2022/12/14 04:03:45;;;;;;;7.32;3.35;;;-3274.90;77.50;;;;;;5093627;27;20050;-62
2022/12/14 04:06:21;;;;;;;9.60;4.07;;;-3274.90;77.30;;;;;;5106202;28;20039;-66
2022/12/14 04:08:53;;;;;;;7.35;3.67;;;-3275.00;77.30;;;;;;5108251;27;20036;-65
2022/12/14 04:19:49;;;;;;;8.15;3.45;;;-3275.00;77.00;;;;;;5112261;27;19928;-66
2022/12/14 04:22:19;;;;;;;8.70;3.33;;;-3275.00;77.10;;;;;;5114165;27;20040;-62
2022/12/14 04:27:39;;;;;;;6.70;3.40;;;-3275.00;76.50;;;;;;5108555;27;20070;-71
2022/12/14 04:30:08;;;;;;;9.27;3.28;;;-3275.00;76.60;;;;;;5116168;27;20043;-70
2022/12/14 04:32:41;;;;;;;6.95;3.15;;;-3275.00;76.00;;;;;;5116931;27;20048;-70
2022/12/14 04:35:13;;;;;;;8.30;3.75;;;-3275.00;76.20;;;;;;5116360;27;20133;-71
2022/12/14 04:37:45;;;;;;;9.20;3.72;;;-3275.10;76.10;;;;;;5116892;27;20051;-71
2022/12/14 04:40:17;;;;;;;7.88;3.70;;;-3275.10;76.20;;;;;;5117743;27;20417;-62
2022/12/14 04:42:51;;;;;;;9.68;3.53;;;-3275.10;76.40;;;;;;5108525;27;20043;-62
2022/12/14 04:45:22;;;;;;;9.70;4.30;;;-3275.10;76.30;;;;;;5108119;27;20128;-65
2022/12/14 04:47:56;;;;;;;8.65;3.47;;;-3275.10;76.40;;;;;;5116531;27;20145;-65
2022/12/14 04:50:29;;;;;;;9.82;4.20;;;-3275.10;76.30;;;;;;5122045;27;20051;-62
2022/12/14 04:53:00;;;;;;;9.55;4.55;;;-3275.10;76.00;;;;;;5105546;27;20561;-62
2022/12/14 04:55:33;;;;;;;10.77;3.92;;;-3275.10;76.00;;;;;;5120767;27;20051;-70
2022/12/14 04:58:04;;;;;;;7.25;3.55;;;-3275.10;76.40;;;;;;5122512;27;20054;-71
2022/12/14 05:00:35;;;;;;;9.40;3.78;;;-3275.10;76.10;;;;;;5118496;27;20396;-67
2022/12/14 05:03:23;;;;;;;8.80;3.75;;;-3275.20;75.90;;;;;;5121203;27;20052;-66
2022/12/14 05:05:59;;;;;;;9.15;3.58;;;-3275.10;76.00;;;;;;5120832;27;20047;-66
2022/12/14 05:08:52;;;;;;;10.32;4.22;;;-3275.20;76.20;;;;;;5112066;27;20062;-67
2022/12/14 05:11:26;;;;;;;9.45;3.38;;;-3275.20;76.20;;;;;;5114756;27;20043;-72
2022/12/14 05:13:53;;;;;;;9.50;4.15;;;-3275.20;76.10;;;;;;5098164;28;20047;-71
2022/12/14 05:16:23;;;;;;;9.07;3.97;;;-3275.20;75.90;;;;;;5117570;27;20116;-71
2022/12/14 05:18:51;;;;;;;8.52;3.65;;;-3275.20;76.00;;;;;;5118075;27;20065;-71
2022/12/14 05:24:01;;;;;;;10.35;4.32;;;-3275.20;76.20;;;;;;5120994;27;20051;-67
2022/12/14 05:26:28;;;;;;;9.77;4.05;;;-3275.20;76.10;;;;;;5118244;27;20079;-60
2022/12/14 05:28:55;;;;;;;10.15;4.15;;;-3275.20;75.80;;;;;;5118580;27;20043;-61
2022/12/14 05:31:22;;;;;;;7.28;3.38;;;-3275.20;76.00;;;;;;5120438;27;20040;-66
2022/12/14 05:33:51;;;;;;;9.02;3.80;;;-3275.20;75.70;;;;;;5121144;27;20036;-66
2022/12/14 05:36:18;;;;;;;8.93;4.05;;;-3275.20;75.60;;;;;;5121705;27;20054;-61
2022/12/14 05:38:45;;;;;;;8.88;4.00;;;-3275.20;75.80;;;;;;5120658;27;20066;-62
2022/12/14 05:41:12;;;;;;;10.88;4.40;;;-3275.20;76.00;;;;;;5114386;27;20081;-62
2022/12/14 05:43:39;;;;;;;10.05;4.25;;;-3275.30;76.10;;;;;;5113226;27;20051;-60
2022/12/14 05:46:06;;;;;;;9.05;4.00;;;-3275.30;76.00;;;;;;5107722;27;20405;-70
2022/12/14 05:48:33;;;;;;;11.85;4.70;;;-3275.30;76.20;;;;;;5118514;27;20443;-71
2022/12/14 05:51:07;;;;;;;9.05;4.05;;;-3275.30;76.10;;;;;;5121555;27;20050;-66
2022/12/14 05:53:34;;;;;;;8.55;3.78;;;-3275.30;76.30;;;;;;5121608;27;20043;-65
2022/12/14 05:56:01;;;;;;;10.15;4.00;;;-3275.30;76.40;;;;;;5120185;27;20071;-66
2022/12/14 05:58:28;;;;;;;8.38;3.95;;;-3275.30;76.20;;;;;;5118965;27;20051;-67
2022/12/14 06:01:00;;;;;;;9.32;4.28;;;-3275.30;76.10;;;;;;5119673;27;20059;-65
2022/12/14 06:03:28;;;;;;;8.30;4.05;;;-3275.30;76.00;;;;;;5101203;27;20036;-65
2022/12/14 06:06:00;;;;;;;8.20;4.57;;;-3275.40;76.10;;;;;;5098314;28;20397;-67
2022/12/14 06:08:36;;;;;;;10.45;4.28;;;-3275.40;76.00;;;;;;5099330;27;20409;-66
2022/12/14 06:11:07;;;;;;;9.98;4.38;;;-3275.30;75.70;;;;;;5098996;28;20048;-71
2022/12/14 06:13:34;;;;;;;8.07;4.38;;;-3275.40;76.00;;;;;;5096375;27;20039;-72
2022/12/14 06:16:10;;;;;;;11.55;4.82;;;-3275.40;76.20;;;;;;5112835;27;20051;-62
2022/12/14 06:18:41;;;;;;;7.72;3.70;;;-3275.40;76.00;;;;;;5119122;27;20496;-62
2022/12/14 06:21:08;;;;;;;8.63;4.07;;;-3275.40;75.50;;;;;;5121478;27;20054;-62
2022/12/14 06:23:36;;;;;;;8.93;3.95;;;-3275.40;75.80;;;;;;5118947;27;20050;-62
2022/12/14 06:26:03;;;;;;;8.68;4.03;;;-3275.40;75.80;;;;;;5118256;27;20390;-71
2022/12/14 06:28:30;;;;;;;10.93;4.50;;;-3275.40;75.90;;;;;;5118289;27;20139;-71
2022/12/14 06:30:57;;;;;;;8.45;3.97;;;-3275.40;76.00;;;;;;5118275;27;20043;-61
2022/12/14 06:33:24;;;;;;;6.80;3.53;;;-3275.40;76.00;;;;;;5118906;27;20406;-62
2022/12/14 06:35:51;;;;;;;9.30;4.13;;;-3275.40;76.00;;;;;;5118904;27;20044;-65
2022/12/14 06:38:18;;;;;;;10.82;4.57;;;-3275.40;76.10;;;;;;5119226;27;20065;-65
2022/12/14 06:40:46;;;;;;;9.02;4.22;;;-3275.50;76.10;;;;;;5119413;27;20038;-63
2022/12/14 06:43:14;;;;;;;9.18;4.07;;;-3275.50;76.10;;;;;;5116669;27;20409;-62
2022/12/14 06:45:41;;;;;;;9.63;4.75;;;-3275.50;76.10;;;;;;5111398;27;20074;-65
2022/12/14 06:48:08;;;;;;;9.65;4.57;;;-3275.50;76.10;;;;;;5131462;27;20057;-65
2022/12/14 06:50:35;;;;;;;8.93;4.82;;;-3275.40;76.00;;;;;;5119660;27;20050;-66
2022/12/14 06:53:02;;;;;;;8.45;4.15;;;-3275.50;76.00;;;;;;5119167;27;20048;-65
2022/12/14 06:55:29;;;;;;;11.13;4.35;;;-3275.40;75.80;;;;;;5119005;27;20054;-71
2022/12/14 06:57:57;;;;;;;8.90;4.40;;;-3275.50;75.80;;;;;;5119719;27;20051;-70
2022/12/14 07:00:25;;;;;;;10.82;4.60;;;-3275.50;76.00;;;;;;5118500;27;20112;-62
2022/12/14 07:02:52;;;;;;;11.52;5.38;;;-3275.40;76.10;;;;;;5116779;27;20048;-61
2022/12/14 07:05:19;;;;;;;11.30;4.70;;;-3275.50;76.10;;;;;;5116135;27;20485;-62
2022/12/14 07:07:46;;;;;;;10.32;4.28;;;-3275.50;76.10;;;;;;5118052;27;20074;-62
2022/12/14 07:10:13;;;;;;;10.02;4.70;;;-3275.50;75.80;;;;;;5096651;27;20048;-70
2022/12/14 07:12:40;;;;;;;10.30;4.70;;;-3275.50;75.90;;;;;;5107262;27;20130;-70
2022/12/14 07:15:10;;;;;;;10.38;5.05;;;-3275.50;76.10;;;;;;5117903;27;20144;-70
2022/12/14 07:17:37;;;;;;;11.48;5.40;;;-3275.60;76.00;;;;;;5117987;27;20104;-70
2022/12/14 07:20:06;;;;;;;10.80;5.10;;;-3275.50;75.60;;;;;;5117217;27;20056;-71
2022/12/14 07:22:34;;;;;;;11.10;5.60;;;-3275.60;75.90;;;;;;5117585;27;20039;-71
2022/12/14 07:25:01;;;;;;;10.13;5.00;;;-3275.50;75.80;;;;;;5116250;27;20490;-71
2022/12/14 07:27:29;;;;;;;10.98;5.45;;;-3275.50;76.10;;;;;;5117611;27;20051;-71
2022/12/14 07:29:55;;;;;;;9.90;5.15;;;-3275.50;76.10;;;;;;5117855;27;20450;-71
2022/12/14 07:32:24;;;;;;;9.82;4.97;;;-3275.60;76.30;;;;;;5110860;27;20075;-60
2022/12/14 07:34:51;;;;;;;13.02;6.00;;;-3275.50;75.80;;;;;;5117430;27;20058;-61
2022/12/14 07:37:17;;;;;;;10.95;4.70;;;-3275.60;75.60;;;;;;5117014;27;20056;-60
2022/12/14 07:39:44;;;;;;;10.13;5.13;;;-3275.60;75.60;;;;;;5114340;27;20055;-61
2022/12/14 07:42:11;;;;;;;9.70;4.75;;;-3275.60;75.40;;;;;;5118669;27;20306;-63
2022/12/14 07:44:38;;;;;;;9.00;4.38;;;-3275.60;75.40;;;;;;5118021;27;20134;-62
2022/12/14 07:47:05;;;;;;;9.77;4.47;;;-3275.60;75.50;;;;;;5118101;27;20141;-62
2022/12/14 07:49:34;;;;;;;10.93;4.65;;;-3275.60;75.70;;;;;;5118358;27;20127;-62
2022/12/14 07:52:00;;;;;;;9.18;4.10;;;-3275.60;75.40;;;;;;5119517;27;20036;-67
2022/12/14 07:54:27;;;;;;;8.90;4.30;;;-3275.60;75.20;;;;;;5107785;27;20139;-66
2022/12/14 07:56:55;;;;;;;10.90;5.10;;;-3275.60;75.00;;;;;;5097914;28;20112;-61
2022/12/14 07:59:22;;;;;;;10.57;4.25;;;-3275.60;75.20;;;;;;5098038;28;20417;-62
2022/12/14 08:01:49;;;;;;;10.07;4.70;;;-3275.60;75.20;;;;;;5095495;28;20126;-62
2022/12/14 08:04:17;;;;;;;10.23;4.15;;;-3275.70;75.10;;;;;;5094304;28;21442;-62
2022/12/14 08:06:47;;;;;;;9.32;4.55;;;-3275.60;75.10;;;;;;5082126;28;20071;-71
2022/12/14 08:09:15;;;;;;;9.52;4.25;;;-3275.70;75.20;;;;;;5104769;28;20131;-72
2022/12/14 08:11:42;;;;;;;8.23;4.55;;;-3275.70;75.10;;;;;;5095094;28;20052;-63
2022/12/14 08:14:15;;;;;;;11.25;4.53;;;-3275.80;75.10;;;;;;5096176;28;20130;-64
2022/12/14 08:16:42;;;;;;;10.50;5.25;;;-3275.80;75.00;;;;;;5096599;28;20067;-62
2022/12/14 08:19:10;;;;;;;11.60;4.90;;;-3275.80;74.80;;;;;;5095371;28;20046;-62
2022/12/14 08:21:37;;;;;;;10.30;5.18;;;-3275.80;74.80;;;;;;5096467;28;20093;-70
2022/12/14 08:24:06;;;;;;;10.30;4.95;;;-3275.80;75.00;;;;;;5099822;28;20526;-70
2022/12/14 08:26:33;;;;;;;10.63;4.88;;;-3275.80;74.90;;;;;;5100959;28;20071;-72
2022/12/14 08:29:00;;;;;;;11.88;5.13;;;-3275.80;74.90;;;;;;5101189;28;20092;-72
2022/12/14 08:31:27;;;;;;;11.85;4.78;;;-3275.90;74.80;;;;;;5100347;28;20202;-69
2022/12/14 08:33:55;;;;;;;10.38;4.55;;;-3275.90;74.40;;;;;;5099489;28;21609;-71
2022/12/14 08:36:24;;;;;;;11.02;4.57;;;-3275.90;74.50;;;;;;5101377;28;20051;-66
2022/12/14 08:38:55;;;;;;;9.55;4.57;;;-3275.80;74.00;;;;;;5098582;28;20059;-67
2022/12/14 08:41:24;;;;;;;16.70;4.90;;;-3275.90;74.10;;;;;;5100681;28;20127;-66
2022/12/14 08:43:56;;;;;;;10.05;4.80;;;-3275.90;74.30;;;;;;5121512;27;20047;-67
2022/12/14 08:46:24;;;;;;;9.45;4.68;;;-3275.90;74.40;;;;;;5122204;27;20047;-63
2022/12/14 08:48:54;;;;;;;12.25;5.00;;;-3276.00;74.30;;;;;;5101424;28;20047;-62
2022/12/14 08:51:22;;;;;;;9.95;4.80;;;-3276.00;74.30;;;;;;5106276;27;20047;-66
2022/12/14 08:53:50;;;;;;;10.25;4.70;;;-3276.00;74.50;;;;;;5122277;27;20075;-67
2022/12/14 08:56:18;;;;;;;9.18;4.38;;;-3276.10;74.30;;;;;;5120654;27;20383;-67
2022/12/14 08:58:47;;;;;;;10.05;4.50;;;-3276.10;74.40;;;;;;5122574;27;20629;-66
2022/12/14 09:01:16;;;;;;;9.48;4.80;;;-3276.10;74.40;;;;;;5125014;27;20047;-63
2022/12/14 09:03:44;;;;;;;10.70;4.60;;;-3276.10;74.10;;;;;;5121175;27;20088;-62
2022/12/14 09:06:13;;;;;;;12.23;4.03;;;-3276.10;74.20;;;;;;5121554;27;20047;-71
2022/12/14 09:08:41;;;;;;;9.95;4.63;;;-3276.10;74.20;;;;;;5118735;27;20043;-71
2022/12/14 09:11:11;;;;;;;9.80;4.25;;;-3276.10;74.30;;;;;;5118871;27;20051;-70
2022/12/14 09:13:39;;;;;;;;;;;-3276.20;74.20;;;;;;5117126;27;20131;-71
2022/12/14 09:16:10;;;;;;;9.73;4.60;;;-3276.20;74.10;;;;;;5119295;27;20306;-72
2022/12/14 09:18:37;;;;;;;9.40;4.63;;;-3276.20;74.00;;;;;;5119711;27;20047;-71
2022/12/14 09:21:04;;;;;;;7.97;4.47;;;-3276.30;74.10;;;;;;5120336;27;20353;-71
2022/12/14 09:23:33;;;;;;;10.05;4.20;;;-3276.30;74.30;;;;;;5121088;27;20051;-71
2022/12/14 09:26:02;;;;;;;9.40;5.00;;;-3276.30;74.20;;;;;;5119182;27;20043;-71
2022/12/14 09:28:30;;;;;;;10.63;4.28;;;-3276.30;74.50;;;;;;5121387;27;20049;-70
2022/12/14 09:30:58;;;;;;;10.18;4.85;;;-3276.30;74.50;;;;;;5119331;27;20127;-71
2022/12/14 09:33:28;;;;;;;12.27;4.68;;;-3276.30;74.50;;;;;;5121315;27;20053;-69
2022/12/14 09:36:00;;;;;;;10.20;5.38;;;-3276.30;74.20;;;;;;5119678;27;20054;-67
2022/12/14 09:38:32;;;;;;;8.88;4.10;;;-3276.30;74.30;;;;;;5119225;27;20043;-68
2022/12/14 09:41:02;;;;;;;9.80;4.55;;;-3276.30;74.10;;;;;;5093402;28;20490;-67
2022/12/14 09:43:39;;;;;;;11.10;4.93;;;-3276.30;73.90;;;;;;5117285;27;20051;-67
2022/12/14 09:46:26;;;;;;;12.25;4.57;;;-3276.30;73.60;;;;;;5119449;27;20056;-73
2022/12/14 09:48:56;;;;;;;10.98;4.60;;;-3276.30;73.50;;;;;;5111008;27;20097;-72
2022/12/14 09:51:29;;;;;;;12.02;5.30;;;-3276.30;73.50;;;;;;5119420;27;20058;-62
2022/12/14 09:54:02;;;;;;;8.95;4.63;;;-3276.30;73.50;;;;;;5119439;27;20047;-62
2022/12/14 09:56:29;;;;;;;9.68;4.63;;;-3276.30;74.00;;;;;;5118962;27;20051;-66
2022/12/14 09:58:59;;;;;;;10.32;4.85;;;-3276.30;73.90;;;;;;5121039;27;20043;-70
2022/12/14 10:01:47;;;;;;;9.38;4.28;;;-3276.40;73.70;;;;;;5117972;27;20059;-63
2022/12/14 10:04:25;;;;;;;9.23;4.47;;;-3276.40;73.60;;;;;;5117776;27;20100;-63
2022/12/14 10:07:00;;;;;;;9.80;4.47;;;-3276.40;73.60;;;;;;5117231;27;20043;-67
2022/12/14 10:09:39;;;;;;;8.57;4.38;;;-3276.40;73.40;;;;;;5119794;27;20104;-68
2022/12/14 10:12:17;;;;;;;11.02;5.03;;;-3276.40;73.40;;;;;;5119414;27;20040;-72
2022/12/14 10:15:08;;;;;;;9.68;4.72;;;-3276.40;72.90;;;;;;5112907;27;20043;-73
2022/12/14 10:18:01;;;;;;;8.45;4.75;;;-3276.40;73.20;;;;;;5118361;27;20052;-72
2022/12/14 10:20:37;;;;;;;9.98;4.70;;;-3276.40;73.30;;;;;;5118051;27;20550;-61
2022/12/14 10:23:05;;;;;;;8.57;4.60;;;-3276.50;73.00;;;;;;5118674;27;20043;-62
2022/12/14 10:25:34;;;;;;;9.80;4.35;;;-3276.50;72.90;;;;;;5119158;27;20442;-74
2022/12/14 10:28:06;;;;;;;12.63;4.70;;;-3276.60;73.10;;;;;;5118630;27;20048;-72
2022/12/14 10:30:33;;;;;;;9.85;5.45;;;-3276.60;73.00;;;;;;5124397;27;20542;-61
2022/12/14 10:33:12;;;;;;;11.35;5.20;;;-3276.60;73.10;;;;;;5117390;27;20055;-64
2022/12/14 10:35:48;;;;;;;10.43;4.82;;;-3276.60;72.90;;;;;;5119379;27;20047;-61
2022/12/14 10:38:24;;;;;;;11.32;5.10;;;-3276.70;73.10;;;;;;5118117;27;20036;-62
2022/12/14 10:40:54;;;;;;;9.40;4.97;;;-3276.70;73.30;;;;;;5119246;27;20051;-71
2022/12/14 10:43:38;;;;;;;10.45;4.55;;;-3276.70;73.20;;;;;;5120064;27;20050;-70
2022/12/14 10:46:20;;;;;;;9.85;5.03;;;-3276.70;73.20;;;;;;5117923;27;20423;-62
2022/12/14 10:48:54;;;;;;;12.80;5.63;;;-3276.70;73.20;;;;;;5107186;27;20043;-61
2022/12/14 10:51:29;;;;;;;10.90;5.20;;;-3276.70;73.30;;;;;;5120027;27;20055;-67
2022/12/14 10:54:03;;;;;;;10.00;5.28;;;-3276.70;73.70;;;;;;5117788;27;20145;-66
2022/12/14 10:56:32;;;;;;;10.98;5.13;;;-3276.70;73.30;;;;;;5115195;27;20061;-61
2022/12/14 10:59:24;;;;;;;11.10;4.90;;;-3276.60;73.70;;;;;;5118775;27;20036;-61
2022/12/14 11:01:54;;;;;;;10.57;4.72;;;-3276.60;73.50;;;;;;5117239;27;20105;-62
2022/12/14 11:04:30;;;;;;;12.88;5.40;;;-3276.60;73.40;;;;;;5111747;27;20047;-62
2022/12/14 11:07:00;;;;;;;11.63;5.30;;;-3276.70;73.30;;;;;;5117458;27;20050;-61
2022/12/14 11:09:28;;;;;;;12.07;5.35;;;-3276.70;73.20;;;;;;5120385;27;20077;-61
2022/12/14 11:11:58;;;;;;;9.30;5.15;;;-3276.70;73.20;;;;;;5117569;27;20051;-61
2022/12/14 11:14:25;;;;;;;11.25;5.32;;;0.00;73.20;;;;;;5116359;27;20055;-61
2022/12/14 11:16:52;;;;;;;11.50;5.53;;;0.00;73.30;;;;;;5109008;27;20074;-64
2022/12/14 11:19:21;;;;;;;10.10;5.47;;;0.00;73.40;;;;;;5119693;27;20447;-64
2022/12/14 11:21:50;;;;;;;11.52;5.45;;;0.00;73.50;;;;;;5118273;27;20046;-67
2022/12/14 11:24:28;;;;;;;10.95;5.55;;;0.00;73.60;;;;;;5116716;27;20051;-67
2022/12/14 11:27:00;;;;;;;12.20;4.97;;;0.00;73.70;;;;;;5116623;27;20066;-63
2022/12/14 11:29:31;;;;;;;8.48;4.70;;;0.00;73.40;;;;;;5118533;27;20043;-62
2022/12/14 11:31:59;;;;;;;8.52;4.43;;;0.00;73.60;;;;;;5109499;27;20478;-73
2022/12/14 11:34:33;;;;;;;8.77;4.80;;;0.00;73.50;;;;;;5097523;28;20068;-73
2022/12/14 11:37:12;;;;;;;10.05;4.55;;;0.00;73.50;;;;;;5098531;28;20046;-73
2022/12/14 11:39:42;;;;;;;8.90;4.18;;;0.00;73.50;;;;;;5096854;28;20482;-74
2022/12/14 11:42:17;;;;;;;11.05;4.78;;;0.00;73.60;;;;;;5097253;28;20052;-64
2022/12/14 11:44:46;;;;;;;10.60;4.65;;;0.00;73.40;;;;;;5096987;28;20067;-62
2022/12/14 11:47:14;;;;;;;11.02;4.68;;;0.00;73.50;;;;;;5098270;28;20500;-73
2022/12/14 11:49:45;;;;;;;9.80;4.75;;;0.00;73.50;;;;;;5096552;28;20109;-72
2022/12/14 11:52:14;;;;;;;12.80;5.13;;;0.00;73.80;;;;;;5098687;28;20047;-72
2022/12/14 11:54:44;;;;;;;10.35;4.50;;;0.00;73.90;;;;;;5097720;28;20117;-71
2022/12/14 11:57:20;;;;;;;9.05;5.20;;;0.00;73.90;;;;;;5096385;28;20059;-61
2022/12/14 11:59:51;;;;;;;9.85;5.03;;;0.00;73.90;;;;;;5098455;28;20379;-61
2022/12/14 12:02:22;;;;;;;11.07;5.07;;;0.00;73.90;;;;;;5101584;28;20056;-67
2022/12/14 12:04:54;;;;;;;10.38;4.65;;;0.00;74.10;;;;;;5099742;28;20113;-68
2022/12/14 12:07:26;;;;;;;9.95;4.78;;;0.00;74.10;;;;;;5095918;28;20533;-69
2022/12/14 12:09:55;;;;;;;11.40;5.20;;;0.00;74.10;;;;;;5101708;28;20115;-69
2022/12/14 12:12:23;;;;;;;13.77;4.93;;;0.10;74.10;;;;;;5094310;28;20483;-69
2022/12/14 12:14:55;;;;;;;12.65;5.22;;;0.10;74.30;;;;;;5107744;27;20040;-68
2022/12/14 12:17:40;;;;;;;11.43;5.05;;;0.20;74.40;;;;;;5099552;28;20146;-61
2022/12/14 12:20:19;;;;;;;10.30;5.32;;;0.20;74.40;;;;;;5109327;27;20085;-63
2022/12/14 12:22:50;;;;;;;11.82;5.18;;;0.20;74.60;;;;;;5112002;27;20051;-62
2022/12/14 12:25:22;;;;;;;9.73;5.05;;;0.20;74.70;;;;;;5110555;27;20055;-68
2022/12/14 12:28:05;;;;;;;11.15;4.60;;;0.20;74.80;;;;;;5108306;27;20048;-67
2022/12/14 12:30:36;;;;;;;11.65;5.00;;;0.20;75.10;;;;;;5106306;27;20167;-68
2022/12/14 12:33:14;;;;;;;10.43;5.05;;;0.20;75.40;;;;;;5110149;27;20071;-68
2022/12/14 12:35:46;;;;;;;10.95;5.40;;;0.20;75.60;;;;;;5108908;27;20497;-70
2022/12/14 12:38:20;;;;;;;11.38;5.35;;;0.20;75.80;;;;;;5105427;27;20071;-67
2022/12/14 12:40:56;;;;;;;10.45;4.97;;;0.20;76.40;;;;;;5109454;27;20132;-68
2022/12/14 12:43:27;;;;;;;11.40;5.00;;;0.20;76.50;;;;;;5110329;27;20048;-68
2022/12/14 12:45:56;;;;;;;11.57;6.10;;;0.20;76.70;;;;;;5107021;27;20075;-62
2022/12/14 12:48:29;;;;;;;13.45;6.10;;;0.20;77.10;;;;;;5099785;28;20066;-62
2022/12/14 12:51:01;;;;;;;13.95;6.43;;;0.10;77.30;;;;;;5098541;28;20052;-67